createdAt,value
2018-05-09T00:01:53.571Z,56.00
2018-05-09T00:04:23.495Z,56.00
2018-05-09T00:06:53.196Z,55.80
2018-05-09T00:09:22.906Z,56.30
2018-05-09T00:11:54.240Z,56.20
2018-05-09T00:14:23.967Z,56.20
2018-05-09T00:16:53.875Z,55.80
2018-05-09T00:19:23.795Z,56.10
2018-05-09T00:21:53.510Z,56.00
2018-05-09T00:24:23.209Z,56.20
2018-05-09T00:26:53.067Z,56.40
2018-05-09T00:29:23.038Z,56.10
2018-05-09T00:31:52.892Z,56.10
2018-05-09T00:34:22.661Z,56.10
2018-05-09T00:36:54.214Z,56.20
2018-05-09T00:39:23.876Z,56.20
2018-05-09T00:41:53.581Z,56.30
2018-05-09T00:44:23.343Z,56.30
2018-05-09T00:46:53.149Z,56.40
2018-05-09T00:49:22.967Z,56.30
2018-05-09T00:51:53.497Z,56.10
2018-05-09T00:54:32.216Z,56.10
2018-05-09T00:57:03.565Z,56.20
2018-05-09T00:59:33.274Z,56.20
2018-05-09T01:02:02.988Z,56.50
2018-05-09T01:04:32.898Z,57.00
2018-05-09T01:07:02.816Z,56.60
2018-05-09T01:09:32.526Z,56.50
2018-05-09T01:12:02.232Z,56.50
2018-05-09T01:14:31.951Z,56.50
2018-05-09T01:17:01.654Z,56.60
2018-05-09T01:19:31.362Z,56.60
2018-05-09T01:22:01.070Z,57.20
2018-05-09T01:24:32.010Z,56.50
2018-05-09T01:27:02.132Z,56.40
2018-05-09T01:29:32.258Z,56.50
2018-05-09T01:32:01.955Z,56.50
2018-05-09T01:34:31.872Z,56.40
2018-05-09T01:37:02.400Z,56.60
2018-05-09T01:39:32.109Z,56.60
2018-05-09T01:42:01.764Z,56.60
2018-05-09T01:44:31.484Z,56.60
2018-05-09T01:47:01.237Z,56.70
2018-05-09T01:49:30.947Z,56.70
2018-05-09T01:52:00.663Z,56.60
2018-05-09T01:54:30.367Z,56.70
2018-05-09T01:57:00.285Z,56.80
2018-05-09T01:59:30.198Z,56.80
2018-05-09T02:01:59.905Z,56.70
2018-05-09T02:04:29.818Z,56.80
2018-05-09T02:06:59.756Z,56.70
2018-05-09T02:09:29.442Z,56.80
2018-05-09T02:11:59.153Z,56.80
2018-05-09T02:14:29.066Z,56.90
2018-05-09T02:17:00.413Z,56.80
2018-05-09T02:19:30.130Z,56.80
2018-05-09T02:22:00.039Z,56.80
2018-05-09T02:24:29.751Z,56.90
2018-05-09T02:26:59.665Z,56.90
2018-05-09T02:29:30.191Z,57.00
2018-05-09T02:32:00.110Z,57.00
2018-05-09T02:34:29.816Z,56.90
2018-05-09T02:37:00.650Z,57.10
2018-05-09T02:39:38.197Z,57.00
2018-05-09T02:42:08.159Z,56.70
2018-05-09T02:44:38.233Z,57.10
2018-05-09T02:47:08.194Z,57.20
2018-05-09T02:49:38.108Z,56.90
2018-05-09T02:52:09.456Z,57.10
2018-05-09T02:54:40.803Z,57.10
2018-05-09T02:57:10.674Z,57.10
2018-05-09T02:59:40.631Z,57.10
2018-05-09T03:02:10.957Z,57.00
2018-05-09T03:04:40.885Z,57.10
2018-05-09T03:07:10.784Z,57.10
2018-05-09T03:09:40.494Z,57.20
2018-05-09T03:12:12.051Z,57.20
2018-05-09T03:14:41.756Z,57.20
2018-05-09T03:17:11.466Z,57.20
2018-05-09T03:19:41.584Z,57.20
2018-05-09T03:22:11.293Z,57.20
2018-05-09T03:24:41.208Z,57.20
2018-05-09T03:27:11.121Z,57.30
2018-05-09T03:29:40.859Z,57.30
2018-05-09T03:32:10.541Z,57.90
2018-05-09T03:34:40.258Z,57.50
2018-05-09T03:37:10.985Z,57.40
2018-05-09T03:39:41.512Z,57.50
2018-05-09T03:42:11.385Z,57.50
2018-05-09T03:44:41.138Z,57.50
2018-05-09T03:47:10.847Z,57.60
2018-05-09T03:49:40.564Z,57.60
2018-05-09T03:52:10.471Z,57.50
2018-05-09T03:54:40.591Z,57.60
2018-05-09T03:57:11.121Z,57.70
2018-05-09T03:59:41.036Z,57.70
2018-05-09T04:06:27.155Z,57.70
2018-05-09T04:10:04.653Z,57.80
2018-05-09T04:12:34.568Z,57.90
2018-05-09T04:15:04.481Z,57.90
2018-05-09T04:17:34.190Z,58.10
2018-05-09T04:20:04.111Z,58.10
2018-05-09T04:22:34.165Z,58.10
2018-05-09T04:25:03.967Z,58.20
2018-05-09T04:27:33.778Z,58.20
2018-05-09T04:30:12.449Z,60.30
2018-05-09T04:32:50.391Z,60.20
2018-05-09T04:35:20.794Z,60.20
2018-05-09T04:37:52.153Z,59.80
2018-05-09T04:40:21.859Z,59.80
2018-05-09T04:42:51.828Z,59.80
2018-05-09T04:45:22.504Z,59.80
2018-05-09T04:47:52.414Z,59.80
2018-05-09T04:50:22.543Z,59.70
2018-05-09T04:52:53.880Z,59.70
2018-05-09T04:55:23.853Z,59.60
2018-05-09T04:57:54.837Z,59.70
2018-05-09T05:00:24.646Z,59.70
2018-05-09T05:02:54.652Z,59.80
2018-05-09T05:05:24.536Z,60.10
2018-05-09T05:07:54.392Z,60.00
2018-05-09T05:10:24.509Z,60.20
2018-05-09T05:12:55.471Z,60.50
2018-05-09T05:15:25.566Z,60.30
2018-05-09T05:17:56.915Z,59.90
2018-05-09T05:20:26.623Z,59.90
2018-05-09T05:22:57.410Z,59.70
2018-05-09T05:25:27.374Z,59.90
2018-05-09T05:28:05.087Z,59.80
2018-05-09T05:30:43.520Z,59.90
2018-05-09T05:33:14.013Z,60.10
2018-05-09T05:35:43.726Z,60.20
2018-05-09T05:38:13.637Z,60.10
2018-05-09T05:40:43.555Z,60.30
2018-05-09T05:43:13.469Z,60.30
2018-05-09T05:45:43.332Z,60.50
2018-05-09T05:48:13.091Z,60.70
2018-05-09T05:50:44.454Z,60.90
2018-05-09T05:53:14.151Z,60.90
2018-05-09T05:55:44.060Z,61.10
2018-05-09T05:58:13.927Z,61.40
2018-05-09T06:00:43.892Z,61.30
2018-05-09T06:03:13.600Z,61.50
2018-05-09T06:05:43.520Z,61.40
2018-05-09T06:08:14.654Z,61.70
2018-05-09T06:10:45.611Z,61.60
2018-05-09T06:13:15.665Z,61.50
2018-05-09T06:15:46.040Z,61.40
2018-05-09T06:18:15.952Z,61.60
2018-05-09T06:20:45.822Z,61.50
2018-05-09T06:23:15.681Z,61.80
2018-05-09T06:25:46.455Z,61.50
2018-05-09T06:28:16.328Z,61.50
2018-05-09T06:30:46.039Z,61.60
2018-05-09T06:33:17.759Z,62.00
2018-05-09T06:35:47.504Z,62.20
2018-05-09T06:38:17.752Z,62.30
2018-05-09T06:40:48.767Z,62.50
2018-05-09T06:43:18.579Z,62.60
2018-05-09T06:45:48.507Z,62.80
2018-05-09T06:48:18.408Z,62.80
2018-05-09T06:50:48.275Z,62.90
2018-05-09T06:53:18.603Z,63.10
2018-05-09T06:55:48.680Z,62.90
2018-05-09T06:58:19.300Z,62.70
2018-05-09T07:00:49.468Z,62.70
2018-05-09T07:03:19.683Z,62.80
2018-05-09T07:05:49.649Z,62.90
2018-05-09T07:08:21.001Z,63.10
2018-05-09T07:10:52.960Z,63.00
2018-05-09T07:13:23.088Z,63.00
2018-05-09T07:15:53.009Z,62.90
2018-05-09T07:18:22.710Z,62.90
2018-05-09T07:20:52.769Z,63.10
2018-05-09T07:23:22.942Z,63.00
2018-05-09T07:25:53.474Z,63.00
2018-05-09T07:28:23.603Z,63.20
2018-05-09T07:30:54.119Z,63.20
2018-05-09T07:33:24.338Z,63.20
2018-05-09T07:35:54.440Z,63.20
2018-05-09T07:38:24.681Z,63.20
2018-05-09T07:40:55.012Z,63.30
2018-05-09T07:43:25.327Z,63.30
2018-05-09T07:45:55.242Z,63.30
2018-05-09T07:48:24.896Z,63.40
2018-05-09T07:50:55.275Z,63.30
2018-05-09T07:53:25.395Z,63.40
2018-05-09T07:55:56.281Z,63.50
2018-05-09T07:58:27.685Z,63.40
2018-05-09T08:00:57.847Z,63.50
2018-05-09T08:03:27.921Z,64.00
2018-05-09T08:05:57.885Z,63.20
2018-05-09T08:08:27.872Z,63.10
2018-05-09T08:10:58.685Z,63.50
2018-05-09T08:13:28.601Z,63.40
2018-05-09T08:15:58.725Z,63.50
2018-05-09T08:18:28.954Z,63.70
2018-05-09T08:20:59.172Z,63.60
2018-05-09T08:23:29.412Z,63.80
2018-05-09T08:26:00.246Z,64.00
2018-05-09T08:28:30.367Z,63.90
2018-05-09T08:31:01.080Z,63.90
2018-05-09T08:33:30.950Z,64.10
2018-05-09T08:36:01.315Z,64.10
2018-05-09T08:38:31.227Z,64.00
2018-05-09T08:41:01.550Z,64.10
2018-05-09T08:43:31.645Z,64.00
2018-05-09T08:46:01.480Z,64.20
2018-05-09T08:48:31.558Z,64.20
2018-05-09T08:51:01.578Z,64.10
2018-05-09T08:53:32.145Z,64.40
2018-05-09T08:56:02.246Z,64.30
2018-05-09T08:58:32.182Z,64.40
2018-05-09T09:01:03.220Z,64.40
2018-05-09T09:03:33.034Z,64.40
2018-05-09T09:06:03.151Z,64.50
2018-05-09T09:08:33.228Z,64.20
2018-05-09T09:11:03.286Z,64.30
2018-05-09T09:13:33.304Z,64.20
2018-05-09T09:16:03.286Z,64.50
2018-05-09T09:18:33.279Z,64.50
2018-05-09T09:21:03.867Z,64.40
2018-05-09T09:23:33.990Z,64.40
2018-05-09T09:26:04.875Z,64.50
2018-05-09T09:28:34.635Z,64.50
2018-05-09T09:31:05.162Z,64.40
2018-05-09T09:33:35.225Z,64.40
2018-05-09T09:36:05.196Z,64.50
2018-05-09T09:38:35.089Z,64.50
2018-05-09T09:41:05.000Z,64.60
2018-05-09T09:43:34.939Z,65.00
2018-05-09T09:46:05.468Z,64.80
2018-05-09T09:48:35.601Z,64.80
2018-05-09T09:51:05.896Z,64.80
2018-05-09T09:53:35.824Z,64.80
2018-05-09T09:56:05.706Z,64.70
2018-05-09T09:58:35.654Z,64.60
2018-05-09T10:01:05.569Z,64.60
2018-05-09T10:03:35.486Z,64.40
2018-05-09T10:06:05.396Z,64.10
2018-05-09T10:08:35.550Z,64.20
2018-05-09T10:11:05.870Z,64.20
2018-05-09T10:13:35.967Z,64.10
2018-05-09T10:16:06.480Z,63.70
2018-05-09T10:18:36.482Z,63.40
2018-05-09T10:21:06.421Z,63.60
2018-05-09T10:23:36.337Z,63.30
2018-05-09T10:26:06.605Z,63.50
2018-05-09T10:28:36.470Z,63.50
2018-05-09T10:31:06.386Z,63.20
2018-05-09T10:33:36.351Z,62.80
2018-05-09T10:36:06.245Z,62.90
2018-05-09T10:38:36.546Z,63.00
2018-05-09T10:41:06.657Z,63.10
2018-05-09T10:43:36.371Z,62.80
2018-05-09T10:46:06.486Z,62.70
2018-05-09T10:48:36.466Z,62.40
2018-05-09T10:51:06.681Z,62.50
2018-05-09T10:53:38.567Z,62.50
2018-05-09T10:56:08.602Z,62.40
2018-05-09T10:58:38.519Z,62.50
2018-05-09T11:01:08.306Z,62.40
2018-05-09T11:03:38.427Z,61.90
2018-05-09T11:06:08.513Z,61.70
2018-05-09T11:08:38.479Z,61.90
2018-05-09T11:11:09.213Z,61.60
2018-05-09T11:13:40.140Z,62.10
2018-05-09T11:16:10.378Z,62.10
2018-05-09T11:18:40.390Z,61.80
2018-05-09T11:21:10.512Z,61.80
2018-05-09T11:23:40.615Z,61.80
2018-05-09T11:26:10.416Z,62.10
2018-05-09T11:28:40.407Z,62.20
2018-05-09T11:31:10.167Z,61.70
2018-05-09T11:33:40.695Z,61.80
2018-05-09T11:36:10.356Z,61.90
2018-05-09T11:38:49.868Z,62.00
2018-05-09T11:41:20.475Z,61.50
2018-05-09T11:43:50.565Z,62.20
2018-05-09T11:46:20.711Z,61.70
2018-05-09T11:48:50.426Z,61.70
2018-05-09T11:51:22.181Z,61.60
2018-05-09T11:53:52.045Z,61.60
2018-05-09T11:56:22.011Z,61.60
2018-05-09T11:58:51.928Z,61.40
2018-05-09T12:01:21.634Z,61.80
2018-05-09T12:03:51.957Z,61.70
2018-05-09T12:06:23.516Z,61.50
2018-05-09T12:08:53.577Z,61.50
2018-05-09T12:11:23.341Z,61.60
2018-05-09T12:13:53.670Z,62.30
2018-05-09T12:16:23.645Z,61.70
2018-05-09T12:18:54.109Z,61.70
2018-05-09T12:21:25.861Z,61.30
2018-05-09T12:23:55.987Z,61.30
2018-05-09T12:26:27.743Z,60.00
2018-05-09T12:28:57.451Z,60.00
2018-05-09T12:31:27.737Z,58.50
2018-05-09T12:33:57.649Z,56.40
2018-05-09T12:36:28.046Z,55.00
2018-05-09T12:38:58.342Z,54.50
2018-05-09T12:41:28.254Z,54.50
2018-05-09T12:43:58.168Z,55.80
2018-05-09T12:46:28.289Z,54.40
2018-05-09T12:49:01.068Z,54.20
2018-05-09T12:51:30.777Z,54.20
2018-05-09T12:54:01.706Z,53.30
2018-05-09T12:56:31.427Z,54.80
2018-05-09T12:59:02.950Z,54.80
2018-05-09T13:01:32.750Z,54.90
2018-05-09T13:04:02.525Z,54.60
2018-05-09T13:06:34.152Z,54.30
2018-05-09T13:09:03.967Z,54.60
2018-05-09T13:11:34.088Z,53.50
2018-05-09T13:14:05.385Z,54.00
2018-05-09T13:16:35.146Z,54.60
2018-05-09T13:19:06.498Z,54.90
2018-05-09T13:21:37.027Z,54.90
2018-05-09T13:24:08.491Z,54.00
2018-05-09T13:26:39.523Z,53.60
2018-05-09T13:29:09.396Z,53.50
2018-05-09T13:31:39.377Z,53.80
2018-05-09T13:34:09.517Z,54.30
2018-05-09T13:36:40.612Z,53.20
2018-05-09T13:39:10.485Z,53.80
2018-05-09T13:41:40.394Z,52.30
2018-05-09T13:44:10.855Z,53.00
2018-05-09T13:46:40.674Z,53.00
2018-05-09T13:49:10.516Z,53.10
2018-05-09T13:51:40.812Z,53.10
2018-05-09T13:54:11.145Z,52.20
2018-05-09T13:56:41.149Z,52.20
2018-05-09T13:59:12.292Z,51.50
2018-05-09T14:01:42.821Z,52.20
2018-05-09T14:04:12.683Z,52.00
2018-05-09T14:06:43.676Z,52.80
2018-05-09T14:09:15.023Z,51.70
2018-05-09T14:11:44.875Z,51.70
2018-05-09T14:14:14.948Z,51.80
2018-05-09T14:16:45.177Z,52.40
2018-05-09T14:19:16.096Z,52.80
2018-05-09T14:21:46.188Z,53.10
2018-05-09T14:24:17.555Z,52.60
2018-05-09T14:26:48.726Z,52.20
2018-05-09T14:29:20.045Z,51.50
2018-05-09T14:31:55.804Z,51.70
2018-05-09T14:34:29.525Z,52.10
2018-05-09T14:37:01.996Z,52.10
2018-05-09T14:39:33.045Z,52.30
2018-05-09T14:42:02.962Z,52.30
2018-05-09T14:44:33.081Z,52.30
2018-05-09T14:47:04.630Z,51.90
2018-05-09T14:49:35.891Z,51.60
2018-05-09T14:52:06.584Z,51.20
2018-05-09T14:54:36.949Z,51.20
2018-05-09T14:57:06.744Z,51.30
2018-05-09T14:59:36.783Z,51.30
2018-05-09T15:02:06.783Z,51.10
2018-05-09T15:04:37.102Z,51.40
2018-05-09T15:07:07.699Z,51.70
2018-05-09T15:09:39.430Z,51.80
2018-05-09T15:12:09.488Z,51.20
2018-05-09T15:14:40.244Z,51.30
2018-05-09T15:17:12.821Z,52.00
2018-05-09T15:19:43.035Z,52.00
2018-05-09T15:22:13.013Z,51.90
2018-05-09T15:24:43.396Z,52.90
2018-05-09T15:27:13.603Z,52.30
2018-05-09T15:29:43.723Z,52.60
2018-05-09T15:32:15.070Z,52.00
2018-05-09T15:34:44.892Z,52.00
2018-05-09T15:37:14.695Z,52.20
2018-05-09T15:39:44.817Z,51.90
2018-05-09T15:42:15.503Z,52.60
2018-05-09T15:44:45.518Z,52.60
2018-05-09T15:47:15.787Z,52.20
2018-05-09T15:49:46.616Z,52.20
2018-05-09T15:52:17.432Z,53.00
2018-05-09T15:54:47.579Z,52.00
2018-05-09T15:57:18.314Z,52.20
2018-05-09T15:59:48.442Z,52.20
2018-05-09T16:02:18.346Z,53.30
2018-05-09T16:04:49.038Z,53.30
2018-05-09T16:07:19.121Z,53.30
2018-05-09T16:09:49.884Z,52.80
2018-05-09T16:12:19.853Z,52.80
2018-05-09T16:14:50.756Z,52.30
2018-05-09T16:17:20.910Z,52.30
2018-05-09T16:19:52.462Z,52.40
2018-05-09T16:22:22.299Z,52.40
2018-05-09T16:24:52.466Z,52.90
2018-05-09T16:27:22.331Z,53.70
2018-05-09T16:29:53.042Z,53.00
2018-05-09T16:32:23.823Z,53.40
2018-05-09T16:34:53.810Z,53.40
2018-05-09T16:37:24.113Z,53.50
2018-05-09T16:39:57.710Z,53.70
2018-05-09T16:42:28.588Z,54.30
2018-05-09T16:44:59.382Z,54.70
2018-05-09T16:47:29.708Z,54.40
2018-05-09T16:49:59.453Z,54.60
2018-05-09T16:52:31.175Z,54.70
2018-05-09T16:55:01.861Z,54.30
2018-05-09T16:57:33.989Z,54.40
2018-05-09T17:00:04.048Z,54.10
2018-05-09T17:02:34.268Z,54.50
2018-05-09T17:05:04.696Z,54.50
2018-05-09T17:07:34.759Z,54.90
2018-05-09T17:10:07.421Z,54.90
2018-05-09T17:12:37.448Z,54.50
2018-05-09T17:15:08.600Z,54.70
2018-05-09T17:17:39.620Z,54.10
2018-05-09T17:20:11.291Z,54.10
2018-05-09T17:22:41.416Z,54.40
2018-05-09T17:25:12.826Z,54.10
2018-05-09T17:27:43.911Z,54.00
2018-05-09T17:30:14.994Z,54.10
2018-05-09T17:32:45.780Z,53.70
2018-05-09T17:35:16.307Z,53.70
2018-05-09T17:37:46.976Z,53.30
2018-05-09T17:40:17.775Z,53.30
2018-05-09T17:42:51.775Z,52.70
2018-05-09T17:45:22.191Z,52.70
2018-05-09T17:47:53.147Z,52.70
2018-05-09T17:50:23.166Z,52.60
2018-05-09T17:52:53.163Z,52.50
2018-05-09T17:55:25.456Z,52.70
2018-05-09T17:57:55.699Z,52.20
2018-05-09T18:00:25.899Z,52.20
2018-05-09T18:02:55.989Z,52.30
2018-05-09T18:05:26.304Z,52.30
2018-05-09T18:07:56.225Z,52.10
2018-05-09T18:10:27.399Z,52.40
2018-05-09T18:12:57.463Z,52.10
2018-05-09T18:15:27.227Z,52.50
2018-05-09T18:17:56.938Z,52.80
2018-05-09T18:20:29.718Z,52.50
2018-05-09T18:23:00.043Z,52.80
2018-05-09T18:25:32.210Z,52.70
2018-05-09T18:28:02.836Z,52.20
2018-05-09T18:30:32.792Z,52.10
2018-05-09T18:33:02.976Z,52.60
2018-05-09T18:35:32.886Z,52.90
2018-05-09T18:38:02.807Z,53.30
2018-05-09T18:40:34.104Z,53.30
2018-05-09T18:43:04.580Z,53.20
2018-05-09T18:45:35.378Z,53.40
2018-05-09T18:48:07.502Z,53.20
2018-05-09T18:50:38.527Z,53.10
2018-05-09T18:53:08.436Z,53.10
2018-05-09T18:55:38.971Z,53.30
2018-05-09T18:58:10.316Z,53.30
2018-05-09T19:00:40.754Z,53.20
2018-05-09T19:03:10.779Z,53.20
2018-05-09T19:05:45.140Z,53.10
2018-05-09T19:08:16.013Z,52.90
2018-05-09T19:10:46.029Z,53.00
2018-05-09T19:13:15.962Z,53.10
2018-05-09T19:15:46.174Z,53.10
2018-05-09T19:18:16.958Z,53.10
2018-05-09T19:20:47.790Z,53.10
2018-05-09T19:23:17.652Z,52.90
2018-05-09T19:25:47.756Z,52.80
2018-05-09T19:28:17.653Z,52.80
2018-05-09T19:30:47.563Z,53.00
2018-05-09T19:33:17.614Z,52.60
2018-05-09T19:35:47.490Z,52.60
2018-05-09T19:38:18.157Z,52.80
2018-05-09T19:40:49.649Z,52.80
2018-05-09T19:43:20.209Z,52.60
2018-05-09T19:45:50.283Z,52.60
2018-05-09T19:48:22.056Z,52.40
2018-05-09T19:50:53.053Z,52.40
2018-05-09T19:53:23.621Z,52.40
2018-05-09T19:55:59.846Z,52.60
2018-05-09T19:58:31.587Z,52.50
2018-05-09T20:01:01.647Z,52.40
2018-05-09T20:03:32.431Z,52.50
2018-05-09T20:06:04.983Z,52.40
2018-05-09T20:08:34.993Z,52.30
2018-05-09T20:11:04.922Z,52.40
2018-05-09T20:13:35.087Z,52.50
2018-05-09T20:16:05.603Z,52.70
2018-05-09T20:18:35.741Z,52.40
2018-05-09T20:21:09.128Z,52.50
2018-05-09T20:23:40.301Z,52.80
2018-05-09T20:26:10.750Z,52.60
2018-05-09T20:28:45.836Z,53.00
2018-05-09T20:31:30.719Z,52.90
2018-05-09T20:34:01.596Z,52.90
2018-05-09T20:36:32.129Z,53.00
2018-05-09T20:39:02.414Z,53.30
2018-05-09T20:41:36.839Z,53.10
2018-05-09T20:44:08.596Z,53.10
2018-05-09T20:46:41.040Z,53.70
2018-05-09T20:49:12.186Z,53.10
2018-05-09T20:54:30.444Z,53.30
2018-05-09T20:57:01.177Z,53.50
2018-05-09T20:59:31.329Z,53.70
2018-05-09T21:02:01.365Z,53.40
2018-05-09T21:04:34.368Z,53.60
2018-05-09T21:07:04.253Z,53.90
2018-05-09T21:09:34.805Z,54.00
2018-05-09T21:12:10.906Z,54.00
2018-05-09T21:14:41.330Z,53.60
2018-05-09T21:17:11.759Z,53.90
2018-05-09T21:19:42.843Z,53.90
2018-05-09T21:22:14.659Z,53.80
2018-05-09T21:24:44.530Z,53.60
2018-05-09T21:27:14.471Z,53.80
2018-05-09T21:29:44.501Z,54.00
2018-05-09T21:32:15.408Z,54.30
2018-05-09T21:34:46.126Z,54.20
2018-05-09T21:37:16.666Z,53.80
2018-05-09T21:39:47.434Z,54.10
2018-05-09T21:42:18.176Z,53.80
2018-05-09T21:44:48.807Z,53.90
2018-05-09T21:47:19.640Z,53.90
2018-05-09T21:49:49.756Z,54.20
2018-05-09T21:52:19.875Z,54.20
2018-05-09T21:54:50.557Z,54.10
2018-05-09T21:57:20.677Z,54.10
2018-05-09T21:59:51.449Z,54.10
2018-05-09T22:02:21.526Z,54.30
2018-05-09T22:04:51.972Z,54.50
2018-05-09T22:07:23.052Z,54.40
2018-05-09T22:09:53.167Z,54.20
2018-05-09T22:12:23.336Z,54.20
2018-05-09T22:14:55.045Z,54.80
2018-05-09T22:17:25.728Z,54.50
2018-05-09T22:19:55.673Z,54.70
2018-05-09T22:22:25.836Z,54.40
2018-05-09T22:24:57.146Z,54.80
2018-05-09T22:27:28.003Z,54.80
2018-05-09T22:29:58.768Z,54.80
2018-05-09T22:32:28.848Z,54.80
2018-05-09T22:34:59.562Z,54.90
2018-05-09T22:37:30.615Z,54.80
2018-05-09T22:40:01.463Z,55.20
2018-05-09T22:42:31.987Z,55.10
2018-05-09T22:45:02.934Z,55.20
2018-05-09T22:47:33.551Z,55.10
2018-05-09T22:50:04.143Z,54.80
2018-05-09T22:52:34.877Z,55.20
2018-05-09T22:55:07.496Z,55.30
2018-05-09T22:57:38.849Z,55.60
2018-05-09T23:00:08.759Z,55.50
2018-05-09T23:02:38.814Z,55.70
2018-05-09T23:05:09.613Z,55.70
2018-05-09T23:07:39.732Z,55.80
2018-05-09T23:10:10.905Z,55.60
2018-05-09T23:12:40.857Z,55.80
2018-05-09T23:15:10.733Z,56.00
2018-05-09T23:17:40.829Z,56.00
2018-05-09T23:20:12.379Z,55.70
2018-05-09T23:22:42.291Z,56.30
2018-05-09T23:25:12.209Z,56.10
2018-05-09T23:27:42.361Z,55.70
2018-05-09T23:30:12.455Z,55.60
2018-05-09T23:32:42.445Z,56.00
2018-05-09T23:35:13.813Z,56.10
2018-05-09T23:37:44.724Z,56.00
2018-05-09T23:40:14.710Z,56.00
2018-05-09T23:42:44.725Z,55.90
2018-05-09T23:45:15.819Z,55.90
2018-05-09T23:47:46.002Z,55.80
2018-05-09T23:50:15.957Z,55.90
2018-05-09T23:52:47.534Z,56.20
2018-05-09T23:55:18.344Z,56.20
2018-05-09T23:57:48.464Z,56.20
